10°C Temp
9°C Dewpoint
94% Humidity
Temperature
13 KM/H
8 MPH
7 KTS
280°
Due West

Wind Speed
Mostly Scattered
Clouds
Pressure 1015.92 (hPa) - 30 (in)
Visibility 6.2 (mi) - 10.0 (km)

Current Conditions
YMML
Location 60(km)
Metar :YMML 051500Z 28007KT 9999 SCT032 SCT059 10/09 Q1016 NOSIG
Mon 6th April 02:00 am

Airport
  Metar Aviation API Data Provided by https://www.checkwx.com/ PHP scripts by weather34.com ©2020